sensor_id;sensor_type;location;lat;lon;timestamp;temperature;humidity
2062;DHT22;11070;51.336;12.340;2023-02-15T00:01:37;2.00;99.90
2062;DHT22;11070;51.336;12.340;2023-02-15T00:04:04;2.00;99.90
2062;DHT22;11070;51.336;12.340;2023-02-15T00:06:30;2.00;99.90
2062;DHT22;11070;51.336;12.340;2023-02-15T00:08:56;1.90;99.90
2062;DHT22;11070;51.336;12.340;2023-02-15T00:11:22;1.80;99.90
2062;DHT22;11070;51.336;12.340;2023-02-15T00:14:16;1.70;99.90
2062;DHT22;11070;51.336;12.340;2023-02-15T00:16:43;1.70;99.90
2062;DHT22;11070;51.336;12.340;2023-02-15T00:19:10;1.70;99.90
2062;DHT22;11070;51.336;12.340;2023-02-15T00:21:37;1.70;99.90
2062;DHT22;11070;51.336;12.340;2023-02-15T00:24:04;1.70;99.90
2062;DHT22;11070;51.336;12.340;2023-02-15T00:26:31;1.70;99.90
2062;DHT22;11070;51.336;12.340;2023-02-15T00:28:57;1.70;99.90
2062;DHT22;11070;51.336;12.340;2023-02-15T00:31:27;1.70;99.90
2062;DHT22;11070;51.336;12.340;2023-02-15T00:33:53;1.70;99.90
2062;DHT22;11070;51.336;12.340;2023-02-15T00:36:19;1.70;99.90
2062;DHT22;11070;51.336;12.340;2023-02-15T00:38:44;1.70;99.90
2062;DHT22;11070;51.336;12.340;2023-02-15T00:41:10;1.60;99.90
2062;DHT22;11070;51.336;12.340;2023-02-15T00:43:36;1.60;99.90
2062;DHT22;11070;51.336;12.340;2023-02-15T00:46:03;1.60;99.90
2062;DHT22;11070;51.336;12.340;2023-02-15T00:48:29;1.60;99.90
2062;DHT22;11070;51.336;12.340;2023-02-15T00:50:57;1.50;99.90
2062;DHT22;11070;51.336;12.340;2023-02-15T00:53:24;1.50;99.90
2062;DHT22;11070;51.336;12.340;2023-02-15T00:55:50;1.50;99.90
2062;DHT22;11070;51.336;12.340;2023-02-15T00:58:16;1.40;99.90
2062;DHT22;11070;51.336;12.340;2023-02-15T01:00:43;1.40;99.90
2062;DHT22;11070;51.336;12.340;2023-02-15T01:03:10;1.40;99.90
2062;DHT22;11070;51.336;12.340;2023-02-15T01:05:36;1.40;99.90
2062;DHT22;11070;51.336;12.340;2023-02-15T01:08:02;1.40;99.90
2062;DHT22;11070;51.336;12.340;2023-02-15T01:10:28;1.40;99.90
2062;DHT22;11070;51.336;12.340;2023-02-15T01:12:55;1.40;99.90
2062;DHT22;11070;51.336;12.340;2023-02-15T01:15:21;1.30;99.90
2062;DHT22;11070;51.336;12.340;2023-02-15T01:17:47;1.30;99.90
2062;DHT22;11070;51.336;12.340;2023-02-15T01:20:17;1.30;99.90
2062;DHT22;11070;51.336;12.340;2023-02-15T01:22:43;1.30;99.90
2062;DHT22;11070;51.336;12.340;2023-02-15T01:25:09;1.30;99.90
2062;DHT22;11070;51.336;12.340;2023-02-15T01:27:35;1.20;99.90
2062;DHT22;11070;51.336;12.340;2023-02-15T01:30:01;1.20;99.90
2062;DHT22;11070;51.336;12.340;2023-02-15T01:32:26;1.20;99.90
2062;DHT22;11070;51.336;12.340;2023-02-15T01:34:52;1.20;99.90
2062;DHT22;11070;51.336;12.340;2023-02-15T01:37:18;1.20;99.90
2062;DHT22;11070;51.336;12.340;2023-02-15T01:39:44;1.20;99.90
2062;DHT22;11070;51.336;12.340;2023-02-15T01:42:13;1.20;99.90
2062;DHT22;11070;51.336;12.340;2023-02-15T01:44:50;1.20;99.90
2062;DHT22;11070;51.336;12.340;2023-02-15T01:50:18;1.20;99.90
2062;DHT22;11070;51.336;12.340;2023-02-15T01:55:21;1.20;99.90
2062;DHT22;11070;51.336;12.340;2023-02-15T01:57:50;1.10;99.90
2062;DHT22;11070;51.336;12.340;2023-02-15T02:00:16;1.10;99.90
2062;DHT22;11070;51.336;12.340;2023-02-15T02:02:45;1.10;99.90
2062;DHT22;11070;51.336;12.340;2023-02-15T02:05:12;1.00;99.90
2062;DHT22;11070;51.336;12.340;2023-02-15T02:07:41;0.90;99.90
2062;DHT22;11070;51.336;12.340;2023-02-15T02:10:09;1.00;99.90
2062;DHT22;11070;51.336;12.340;2023-02-15T02:12:36;1.00;99.90
2062;DHT22;11070;51.336;12.340;2023-02-15T02:15:04;0.90;99.90
2062;DHT22;11070;51.336;12.340;2023-02-15T02:17:41;0.90;99.90
2062;DHT22;11070;51.336;12.340;2023-02-15T02:23:23;0.80;99.90
2062;DHT22;11070;51.336;12.340;2023-02-15T02:34:05;0.70;99.90
2062;DHT22;11070;51.336;12.340;2023-02-15T02:39:23;0.70;99.90
2062;DHT22;11070;51.336;12.340;2023-02-15T02:42:04;0.60;99.90
2062;DHT22;11070;51.336;12.340;2023-02-15T02:49:40;0.60;99.90
2062;DHT22;11070;51.336;12.340;2023-02-15T02:54:58;0.60;99.90
2062;DHT22;11070;51.336;12.340;2023-02-15T02:57:26;0.70;99.90
2062;DHT22;11070;51.336;12.340;2023-02-15T02:59:52;0.70;99.90
2062;DHT22;11070;51.336;12.340;2023-02-15T03:02:24;0.60;99.90
2062;DHT22;11070;51.336;12.340;2023-02-15T03:04:57;0.70;99.90
2062;DHT22;11070;51.336;12.340;2023-02-15T03:07:31;0.60;99.90
2062;DHT22;11070;51.336;12.340;2023-02-15T03:10:00;0.60;99.90
2062;DHT22;11070;51.336;12.340;2023-02-15T03:12:33;0.60;99.90
2062;DHT22;11070;51.336;12.340;2023-02-15T03:15:05;0.60;99.90
2062;DHT22;11070;51.336;12.340;2023-02-15T03:17:36;0.60;99.90
2062;DHT22;11070;51.336;12.340;2023-02-15T03:20:30;0.60;99.90
2062;DHT22;11070;51.336;12.340;2023-02-15T03:23:04;0.60;99.90
2062;DHT22;11070;51.336;12.340;2023-02-15T03:25:34;0.70;99.90
2062;DHT22;11070;51.336;12.340;2023-02-15T03:28:15;0.70;99.90
2062;DHT22;11070;51.336;12.340;2023-02-15T03:30:45;0.60;99.90
2062;DHT22;11070;51.336;12.340;2023-02-15T03:33:13;0.60;99.90
2062;DHT22;11070;51.336;12.340;2023-02-15T03:35:54;0.60;99.90
2062;DHT22;11070;51.336;12.340;2023-02-15T03:38:36;0.60;99.90
2062;DHT22;11070;51.336;12.340;2023-02-15T03:41:06;0.60;99.90
2062;DHT22;11070;51.336;12.340;2023-02-15T03:46:36;0.60;99.90
2062;DHT22;11070;51.336;12.340;2023-02-15T03:49:24;0.70;99.90
2062;DHT22;11070;51.336;12.340;2023-02-15T03:51:55;0.60;99.90
2062;DHT22;11070;51.336;12.340;2023-02-15T03:54:33;0.70;99.90
2062;DHT22;11070;51.336;12.340;2023-02-15T03:57:21;0.70;99.90
2062;DHT22;11070;51.336;12.340;2023-02-15T04:00:21;0.70;99.90
2062;DHT22;11070;51.336;12.340;2023-02-15T04:05:41;0.60;99.90
2062;DHT22;11070;51.336;12.340;2023-02-15T04:08:08;0.60;99.90
2062;DHT22;11070;51.336;12.340;2023-02-15T04:10:34;0.50;99.90
2062;DHT22;11070;51.336;12.340;2023-02-15T04:13:31;0.50;99.90
2062;DHT22;11070;51.336;12.340;2023-02-15T04:15:57;0.50;99.90
2062;DHT22;11070;51.336;12.340;2023-02-15T04:18:42;0.50;99.90
2062;DHT22;11070;51.336;12.340;2023-02-15T04:21:29;0.50;99.90
2062;DHT22;11070;51.336;12.340;2023-02-15T04:24:14;0.50;99.90
2062;DHT22;11070;51.336;12.340;2023-02-15T04:26:59;0.50;99.90
2062;DHT22;11070;51.336;12.340;2023-02-15T04:29:26;0.40;99.90
2062;DHT22;11070;51.336;12.340;2023-02-15T04:31:52;0.50;99.90
2062;DHT22;11070;51.336;12.340;2023-02-15T04:34:18;0.50;99.90
2062;DHT22;11070;51.336;12.340;2023-02-15T04:36:44;0.50;99.90
2062;DHT22;11070;51.336;12.340;2023-02-15T04:39:12;0.40;99.90
2062;DHT22;11070;51.336;12.340;2023-02-15T04:41:38;0.40;99.90
2062;DHT22;11070;51.336;12.340;2023-02-15T04:44:04;0.40;99.90
2062;DHT22;11070;51.336;12.340;2023-02-15T04:46:33;0.30;99.90
2062;DHT22;11070;51.336;12.340;2023-02-15T04:48:59;0.30;99.90
2062;DHT22;11070;51.336;12.340;2023-02-15T04:51:25;0.40;99.90
2062;DHT22;11070;51.336;12.340;2023-02-15T04:53:51;0.40;99.90
2062;DHT22;11070;51.336;12.340;2023-02-15T04:56:19;0.40;99.90
2062;DHT22;11070;51.336;12.340;2023-02-15T04:58:44;0.30;99.90
2062;DHT22;11070;51.336;12.340;2023-02-15T05:01:10;0.40;99.90
2062;DHT22;11070;51.336;12.340;2023-02-15T05:03:36;0.30;99.90
2062;DHT22;11070;51.336;12.340;2023-02-15T05:06:03;0.40;99.90
2062;DHT22;11070;51.336;12.340;2023-02-15T05:08:29;0.40;99.90
2062;DHT22;11070;51.336;12.340;2023-02-15T05:10:56;0.30;99.90
2062;DHT22;11070;51.336;12.340;2023-02-15T05:13:21;0.30;99.90
2062;DHT22;11070;51.336;12.340;2023-02-15T05:15:56;0.30;99.90
2062;DHT22;11070;51.336;12.340;2023-02-15T05:18:22;0.30;99.90
2062;DHT22;11070;51.336;12.340;2023-02-15T05:20:48;0.30;99.90
2062;DHT22;11070;51.336;12.340;2023-02-15T05:23:15;0.30;99.90
2062;DHT22;11070;51.336;12.340;2023-02-15T05:25:40;0.30;99.90
2062;DHT22;11070;51.336;12.340;2023-02-15T05:28:27;0.40;99.90
2062;DHT22;11070;51.336;12.340;2023-02-15T05:31:03;0.40;99.90
2062;DHT22;11070;51.336;12.340;2023-02-15T05:33:29;0.40;99.90
2062;DHT22;11070;51.336;12.340;2023-02-15T05:35:55;0.40;99.90
2062;DHT22;11070;51.336;12.340;2023-02-15T05:38:20;0.40;99.90
2062;DHT22;11070;51.336;12.340;2023-02-15T05:40:46;0.40;99.90
2062;DHT22;11070;51.336;12.340;2023-02-15T05:43:12;0.40;99.90
2062;DHT22;11070;51.336;12.340;2023-02-15T05:45:37;0.40;99.90
2062;DHT22;11070;51.336;12.340;2023-02-15T05:48:03;0.40;99.90
2062;DHT22;11070;51.336;12.340;2023-02-15T05:50:29;0.40;99.90
2062;DHT22;11070;51.336;12.340;2023-02-15T05:52:54;0.40;99.90
2062;DHT22;11070;51.336;12.340;2023-02-15T05:55:20;0.40;99.90
2062;DHT22;11070;51.336;12.340;2023-02-15T05:57:46;0.40;99.90
2062;DHT22;11070;51.336;12.340;2023-02-15T06:00:13;0.40;99.90
2062;DHT22;11070;51.336;12.340;2023-02-15T06:02:39;0.40;99.90
2062;DHT22;11070;51.336;12.340;2023-02-15T06:05:05;0.40;99.90
2062;DHT22;11070;51.336;12.340;2023-02-15T06:07:32;0.30;99.90
2062;DHT22;11070;51.336;12.340;2023-02-15T06:09:57;0.30;99.90
2062;DHT22;11070;51.336;12.340;2023-02-15T06:12:23;0.30;99.90
2062;DHT22;11070;51.336;12.340;2023-02-15T06:14:49;0.20;99.90
2062;DHT22;11070;51.336;12.340;2023-02-15T06:17:15;0.20;99.90
2062;DHT22;11070;51.336;12.340;2023-02-15T06:19:42;0.20;99.90
2062;DHT22;11070;51.336;12.340;2023-02-15T06:22:07;0.20;99.90
2062;DHT22;11070;51.336;12.340;2023-02-15T06:24:33;0.20;99.90
2062;DHT22;11070;51.336;12.340;2023-02-15T06:26:59;0.30;99.90
2062;DHT22;11070;51.336;12.340;2023-02-15T06:29:24;0.30;99.90
2062;DHT22;11070;51.336;12.340;2023-02-15T06:31:50;0.30;99.90
2062;DHT22;11070;51.336;12.340;2023-02-15T06:34:16;0.30;99.90
2062;DHT22;11070;51.336;12.340;2023-02-15T06:36:41;0.30;99.90
2062;DHT22;11070;51.336;12.340;2023-02-15T06:39:07;0.30;99.90
2062;DHT22;11070;51.336;12.340;2023-02-15T06:41:33;0.30;99.90
2062;DHT22;11070;51.336;12.340;2023-02-15T06:43:59;0.40;99.90
2062;DHT22;11070;51.336;12.340;2023-02-15T06:46:24;0.50;99.90
2062;DHT22;11070;51.336;12.340;2023-02-15T06:48:50;0.90;99.90
2062;DHT22;11070;51.336;12.340;2023-02-15T06:51:16;1.30;99.90
2062;DHT22;11070;51.336;12.340;2023-02-15T06:53:41;1.70;99.90
2062;DHT22;11070;51.336;12.340;2023-02-15T06:56:10;2.00;99.90
2062;DHT22;11070;51.336;12.340;2023-02-15T06:58:40;2.00;99.90
2062;DHT22;11070;51.336;12.340;2023-02-15T07:01:07;2.00;99.90
2062;DHT22;11070;51.336;12.340;2023-02-15T07:03:34;2.40;99.90
2062;DHT22;11070;51.336;12.340;2023-02-15T07:06:01;2.60;99.90
2062;DHT22;11070;51.336;12.340;2023-02-15T07:08:28;3.00;99.90
2062;DHT22;11070;51.336;12.340;2023-02-15T07:10:55;3.40;99.90
2062;DHT22;11070;51.336;12.340;2023-02-15T07:13:41;4.10;99.90
2062;DHT22;11070;51.336;12.340;2023-02-15T07:16:08;5.20;34.70
2062;DHT22;11070;51.336;12.340;2023-02-15T07:18:34;5.60;99.90
2062;DHT22;11070;51.336;12.340;2023-02-15T07:21:00;5.50;99.90
2062;DHT22;11070;51.336;12.340;2023-02-15T07:23:25;5.50;99.90
2062;DHT22;11070;51.336;12.340;2023-02-15T07:26:00;5.50;1.00
2062;DHT22;11070;51.336;12.340;2023-02-15T07:28:27;5.40;1.00
2062;DHT22;11070;51.336;12.340;2023-02-15T07:30:53;5.50;99.90
2062;DHT22;11070;51.336;12.340;2023-02-15T07:33:19;6.10;99.90
2062;DHT22;11070;51.336;12.340;2023-02-15T07:35:57;6.60;99.90
2062;DHT22;11070;51.336;12.340;2023-02-15T07:38:27;6.70;1.00
2062;DHT22;11070;51.336;12.340;2023-02-15T07:41:01;7.40;1.00
2062;DHT22;11070;51.336;12.340;2023-02-15T07:43:28;8.00;1.00
2062;DHT22;11070;51.336;12.340;2023-02-15T07:45:54;9.00;1.00
2062;DHT22;11070;51.336;12.340;2023-02-15T07:48:23;8.70;1.00
2062;DHT22;11070;51.336;12.340;2023-02-15T07:50:49;8.40;1.00
2062;DHT22;11070;51.336;12.340;2023-02-15T07:53:15;8.00;1.00
2062;DHT22;11070;51.336;12.340;2023-02-15T07:55:40;8.20;1.00
2062;DHT22;11070;51.336;12.340;2023-02-15T07:58:06;8.10;1.00
2062;DHT22;11070;51.336;12.340;2023-02-15T08:00:32;7.40;1.00
2062;DHT22;11070;51.336;12.340;2023-02-15T08:03:17;7.30;1.00
2062;DHT22;11070;51.336;12.340;2023-02-15T08:05:44;7.40;1.00
2062;DHT22;11070;51.336;12.340;2023-02-15T08:08:11;8.60;1.00
2062;DHT22;11070;51.336;12.340;2023-02-15T08:11:02;7.50;1.00
2062;DHT22;11070;51.336;12.340;2023-02-15T08:13:48;7.10;1.00
2062;DHT22;11070;51.336;12.340;2023-02-15T08:18:53;8.10;1.00
2062;DHT22;11070;51.336;12.340;2023-02-15T08:21:20;8.70;1.00
2062;DHT22;11070;51.336;12.340;2023-02-15T08:23:46;9.90;1.00
2062;DHT22;11070;51.336;12.340;2023-02-15T08:26:12;10.90;1.00
2062;DHT22;11070;51.336;12.340;2023-02-15T08:28:38;11.70;1.00
2062;DHT22;11070;51.336;12.340;2023-02-15T08:31:09;11.40;1.00
2062;DHT22;11070;51.336;12.340;2023-02-15T08:33:37;10.00;1.00
2062;DHT22;11070;51.336;12.340;2023-02-15T08:36:09;8.90;1.00
2062;DHT22;11070;51.336;12.340;2023-02-15T08:38:35;9.20;1.00
2062;DHT22;11070;51.336;12.340;2023-02-15T08:41:12;9.10;1.00
2062;DHT22;11070;51.336;12.340;2023-02-15T08:43:38;9.10;1.00
2062;DHT22;11070;51.336;12.340;2023-02-15T08:46:05;9.50;1.00
2062;DHT22;11070;51.336;12.340;2023-02-15T08:48:31;10.40;1.00
2062;DHT22;11070;51.336;12.340;2023-02-15T08:50:56;11.10;1.00
2062;DHT22;11070;51.336;12.340;2023-02-15T08:53:22;11.60;1.00
2062;DHT22;11070;51.336;12.340;2023-02-15T08:55:58;13.30;1.00
2062;DHT22;11070;51.336;12.340;2023-02-15T08:58:24;13.80;1.00
2062;DHT22;11070;51.336;12.340;2023-02-15T09:00:50;15.10;1.00
2062;DHT22;11070;51.336;12.340;2023-02-15T09:03:16;15.30;1.00
2062;DHT22;11070;51.336;12.340;2023-02-15T09:05:42;14.30;1.00
2062;DHT22;11070;51.336;12.340;2023-02-15T09:08:08;13.90;1.00
2062;DHT22;11070;51.336;12.340;2023-02-15T09:10:33;13.10;1.00
2062;DHT22;11070;51.336;12.340;2023-02-15T09:12:59;13.10;1.00
2062;DHT22;11070;51.336;12.340;2023-02-15T09:15:25;12.50;1.00
2062;DHT22;11070;51.336;12.340;2023-02-15T09:17:50;12.50;1.00
2062;DHT22;11070;51.336;12.340;2023-02-15T09:20:16;12.40;1.00
2062;DHT22;11070;51.336;12.340;2023-02-15T09:22:42;12.80;1.00
2062;DHT22;11070;51.336;12.340;2023-02-15T09:25:07;12.70;1.00
2062;DHT22;11070;51.336;12.340;2023-02-15T09:27:33;12.20;1.00
2062;DHT22;11070;51.336;12.340;2023-02-15T09:29:58;12.50;1.00
2062;DHT22;11070;51.336;12.340;2023-02-15T09:32:24;13.50;1.00
2062;DHT22;11070;51.336;12.340;2023-02-15T09:34:50;14.10;1.00
2062;DHT22;11070;51.336;12.340;2023-02-15T09:37:16;13.80;1.00
2062;DHT22;11070;51.336;12.340;2023-02-15T09:39:43;14.10;1.00
2062;DHT22;11070;51.336;12.340;2023-02-15T09:48:20;14.70;1.00
2062;DHT22;11070;51.336;12.340;2023-02-15T09:56:38;14.80;1.00
2062;DHT22;11070;51.336;12.340;2023-02-15T10:02:20;13.00;1.00
2062;DHT22;11070;51.336;12.340;2023-02-15T10:07:47;13.80;1.00
2062;DHT22;11070;51.336;12.340;2023-02-15T10:10:30;15.00;1.00
2062;DHT22;11070;51.336;12.340;2023-02-15T10:18:30;13.80;1.00
2062;DHT22;11070;51.336;12.340;2023-02-15T10:21:22;14.80;1.00
2062;DHT22;11070;51.336;12.340;2023-02-15T10:26:46;16.50;1.00
2062;DHT22;11070;51.336;12.340;2023-02-15T10:34:51;18.10;1.00
2062;DHT22;11070;51.336;12.340;2023-02-15T10:40:25;18.40;1.00
2062;DHT22;11070;51.336;12.340;2023-02-15T10:42:59;16.80;1.00
2062;DHT22;11070;51.336;12.340;2023-02-15T10:50:55;16.90;1.00
2062;DHT22;11070;51.336;12.340;2023-02-15T11:02:14;20.00;1.00
2062;DHT22;11070;51.336;12.340;2023-02-15T11:07:39;19.60;1.00
2062;DHT22;11070;51.336;12.340;2023-02-15T11:12:32;18.30;1.00
2062;DHT22;11070;51.336;12.340;2023-02-15T11:15:04;17.70;1.00
2062;DHT22;11070;51.336;12.340;2023-02-15T11:17:51;17.50;1.00
2062;DHT22;11070;51.336;12.340;2023-02-15T11:22:50;17.10;99.90
2062;DHT22;11070;51.336;12.340;2023-02-15T11:25:22;16.90;99.90
2062;DHT22;11070;51.336;12.340;2023-02-15T11:27:49;17.20;99.90
2062;DHT22;11070;51.336;12.340;2023-02-15T11:30:21;18.60;1.00
2062;DHT22;11070;51.336;12.340;2023-02-15T11:32:50;19.40;1.00
2062;DHT22;11070;51.336;12.340;2023-02-15T11:35:31;17.80;99.90
2062;DHT22;11070;51.336;12.340;2023-02-15T11:38:21;16.80;99.90
2062;DHT22;11070;51.336;12.340;2023-02-15T11:40:49;16.40;99.90
2062;DHT22;11070;51.336;12.340;2023-02-15T11:45:52;16.70;99.90
2062;DHT22;11070;51.336;12.340;2023-02-15T11:48:20;16.30;99.90
2062;DHT22;11070;51.336;12.340;2023-02-15T11:50:45;17.60;99.90
2062;DHT22;11070;51.336;12.340;2023-02-15T11:53:20;17.00;99.90
2062;DHT22;11070;51.336;12.340;2023-02-15T11:55:53;17.10;99.90
2062;DHT22;11070;51.336;12.340;2023-02-15T12:06:16;17.10;99.90
2062;DHT22;11070;51.336;12.340;2023-02-15T12:08:48;18.40;99.90
2062;DHT22;11070;51.336;12.340;2023-02-15T12:11:20;18.50;99.90
2062;DHT22;11070;51.336;12.340;2023-02-15T12:14:04;18.40;99.90
2062;DHT22;11070;51.336;12.340;2023-02-15T12:16:40;18.50;99.90
2062;DHT22;11070;51.336;12.340;2023-02-15T12:19:59;17.60;99.90
2062;DHT22;11070;51.336;12.340;2023-02-15T12:22:02;17.00;99.90
2062;DHT22;11070;51.336;12.340;2023-02-15T12:24:36;17.80;99.90
2062;DHT22;11070;51.336;12.340;2023-02-15T12:27:05;18.00;99.90
2062;DHT22;11070;51.336;12.340;2023-02-15T12:29:43;18.90;99.90
2062;DHT22;11070;51.336;12.340;2023-02-15T12:32:23;18.70;99.90
2062;DHT22;11070;51.336;12.340;2023-02-15T12:34:51;19.00;99.90
2062;DHT22;11070;51.336;12.340;2023-02-15T12:37:22;20.10;99.90
2062;DHT22;11070;51.336;12.340;2023-02-15T12:39:57;19.80;99.90
2062;DHT22;11070;51.336;12.340;2023-02-15T12:42:24;18.20;99.90
2062;DHT22;11070;51.336;12.340;2023-02-15T12:44:56;18.00;99.90
2062;DHT22;11070;51.336;12.340;2023-02-15T12:47:22;18.60;99.90
2062;DHT22;11070;51.336;12.340;2023-02-15T12:50:14;17.80;99.90
2062;DHT22;11070;51.336;12.340;2023-02-15T12:52:48;18.40;99.90
2062;DHT22;11070;51.336;12.340;2023-02-15T12:55:26;19.20;99.90
2062;DHT22;11070;51.336;12.340;2023-02-15T13:00:34;18.40;99.90
2062;DHT22;11070;51.336;12.340;2023-02-15T13:03:01;18.50;99.90
2062;DHT22;11070;51.336;12.340;2023-02-15T13:05:32;17.10;99.90
2062;DHT22;11070;51.336;12.340;2023-02-15T13:08:12;17.40;99.90
2062;DHT22;11070;51.336;12.340;2023-02-15T13:10:59;18.80;99.90
2062;DHT22;11070;51.336;12.340;2023-02-15T13:13:50;17.80;99.90
2062;DHT22;11070;51.336;12.340;2023-02-15T13:16:23;17.80;99.90
2062;DHT22;11070;51.336;12.340;2023-02-15T13:18:51;17.70;99.90
2062;DHT22;11070;51.336;12.340;2023-02-15T13:21:25;17.60;99.90
2062;DHT22;11070;51.336;12.340;2023-02-15T13:23:55;17.90;99.90
2062;DHT22;11070;51.336;12.340;2023-02-15T13:26:23;18.30;99.90
2062;DHT22;11070;51.336;12.340;2023-02-15T13:28:56;17.50;99.90
2062;DHT22;11070;51.336;12.340;2023-02-15T13:31:26;17.80;99.90
2062;DHT22;11070;51.336;12.340;2023-02-15T13:33:54;18.60;99.90
2062;DHT22;11070;51.336;12.340;2023-02-15T13:36:34;17.90;99.90
2062;DHT22;11070;51.336;12.340;2023-02-15T13:47:32;18.60;99.90
2062;DHT22;11070;51.336;12.340;2023-02-15T13:50:19;18.30;99.90
2062;DHT22;11070;51.336;12.340;2023-02-15T13:53:09;18.40;99.90
2062;DHT22;11070;51.336;12.340;2023-02-15T13:55:44;20.00;99.90
2062;DHT22;11070;51.336;12.340;2023-02-15T14:01:31;18.70;99.90
2062;DHT22;11070;51.336;12.340;2023-02-15T14:15:58;18.50;99.90
2062;DHT22;11070;51.336;12.340;2023-02-15T14:23:57;18.50;99.90
2062;DHT22;11070;51.336;12.340;2023-02-15T14:26:45;18.00;99.90
2062;DHT22;11070;51.336;12.340;2023-02-15T14:32:12;17.10;99.90
2062;DHT22;11070;51.336;12.340;2023-02-15T14:34:53;17.90;99.90
2062;DHT22;11070;51.336;12.340;2023-02-15T14:49:37;17.60;99.90
2062;DHT22;11070;51.336;12.340;2023-02-15T14:52:07;17.50;99.90
2062;DHT22;11070;51.336;12.340;2023-02-15T15:02:43;16.50;99.90
2062;DHT22;11070;51.336;12.340;2023-02-15T15:05:34;17.80;99.90
2062;DHT22;11070;51.336;12.340;2023-02-15T15:08:03;17.80;99.90
2062;DHT22;11070;51.336;12.340;2023-02-15T15:10:38;17.20;99.90
2062;DHT22;11070;51.336;12.340;2023-02-15T15:16:30;17.00;99.90
2062;DHT22;11070;51.336;12.340;2023-02-15T15:18:56;17.20;99.90
2062;DHT22;11070;51.336;12.340;2023-02-15T15:27:41;18.20;99.90
2062;DHT22;11070;51.336;12.340;2023-02-15T15:38:58;17.30;99.90
2062;DHT22;11070;51.336;12.340;2023-02-15T15:49:44;17.60;99.90
2062;DHT22;11070;51.336;12.340;2023-02-15T15:52:18;17.30;99.90
2062;DHT22;11070;51.336;12.340;2023-02-15T15:54:48;16.60;99.90
2062;DHT22;11070;51.336;12.340;2023-02-15T15:57:30;15.80;99.90
2062;DHT22;11070;51.336;12.340;2023-02-15T15:59:57;14.90;99.90
2062;DHT22;11070;51.336;12.340;2023-02-15T16:02:26;14.40;99.90
2062;DHT22;11070;51.336;12.340;2023-02-15T16:04:53;14.10;99.90
2062;DHT22;11070;51.336;12.340;2023-02-15T16:12:20;12.90;99.90
2062;DHT22;11070;51.336;12.340;2023-02-15T16:14:46;12.60;99.90
2062;DHT22;11070;51.336;12.340;2023-02-15T16:17:34;12.50;99.90
2062;DHT22;11070;51.336;12.340;2023-02-15T16:20:15;12.30;99.90
2062;DHT22;11070;51.336;12.340;2023-02-15T16:22:45;12.10;99.90
2062;DHT22;11070;51.336;12.340;2023-02-15T16:27:47;11.60;99.90
2062;DHT22;11070;51.336;12.340;2023-02-15T16:30:22;11.50;99.90
2062;DHT22;11070;51.336;12.340;2023-02-15T16:32:49;11.40;99.90
2062;DHT22;11070;51.336;12.340;2023-02-15T16:35:21;11.30;99.90
2062;DHT22;11070;51.336;12.340;2023-02-15T16:37:48;11.10;99.90
2062;DHT22;11070;51.336;12.340;2023-02-15T16:42:52;10.70;99.90
2062;DHT22;11070;51.336;12.340;2023-02-15T16:45:24;10.70;1.00
2062;DHT22;11070;51.336;12.340;2023-02-15T16:47:55;10.60;1.00
2062;DHT22;11070;51.336;12.340;2023-02-15T16:52:54;10.40;1.00
2062;DHT22;11070;51.336;12.340;2023-02-15T16:55:26;10.40;1.00
2062;DHT22;11070;51.336;12.340;2023-02-15T16:58:04;10.30;1.00
2062;DHT22;11070;51.336;12.340;2023-02-15T17:00:38;10.20;1.00
2062;DHT22;11070;51.336;12.340;2023-02-15T17:03:25;10.00;1.00
2062;DHT22;11070;51.336;12.340;2023-02-15T17:05:57;9.80;1.00
2062;DHT22;11070;51.336;12.340;2023-02-15T17:08:42;9.80;1.00
2062;DHT22;11070;51.336;12.340;2023-02-15T17:11:18;9.70;1.00
2062;DHT22;11070;51.336;12.340;2023-02-15T17:16:34;9.60;1.00
2062;DHT22;11070;51.336;12.340;2023-02-15T17:19:13;9.50;1.00
2062;DHT22;11070;51.336;12.340;2023-02-15T17:21:42;9.50;1.00
2062;DHT22;11070;51.336;12.340;2023-02-15T17:24:17;9.30;1.00
2062;DHT22;11070;51.336;12.340;2023-02-15T17:26:49;9.30;1.00
2062;DHT22;11070;51.336;12.340;2023-02-15T17:31:48;9.20;1.00
2062;DHT22;11070;51.336;12.340;2023-02-15T17:34:41;9.10;1.00
2062;DHT22;11070;51.336;12.340;2023-02-15T17:37:30;9.10;1.00
2062;DHT22;11070;51.336;12.340;2023-02-15T17:39:58;9.00;1.00
2062;DHT22;11070;51.336;12.340;2023-02-15T17:42:24;8.80;1.00
2062;DHT22;11070;51.336;12.340;2023-02-15T17:44:49;8.80;1.00
2062;DHT22;11070;51.336;12.340;2023-02-15T17:47:21;8.80;1.00
2062;DHT22;11070;51.336;12.340;2023-02-15T17:49:48;8.80;12.70
2062;DHT22;11070;51.336;12.340;2023-02-15T17:52:17;8.80;88.00
2062;DHT22;11070;51.336;12.340;2023-02-15T17:54:43;8.80;91.00
2062;DHT22;11070;51.336;12.340;2023-02-15T17:57:28;8.70;99.90
2062;DHT22;11070;51.336;12.340;2023-02-15T17:59:54;8.70;99.90
2062;DHT22;11070;51.336;12.340;2023-02-15T18:02:38;8.70;99.90
2062;DHT22;11070;51.336;12.340;2023-02-15T18:05:23;8.60;99.90
2062;DHT22;11070;51.336;12.340;2023-02-15T18:08:15;8.60;99.90
2062;DHT22;11070;51.336;12.340;2023-02-15T18:11:01;8.40;1.00
2062;DHT22;11070;51.336;12.340;2023-02-15T18:13:45;8.40;1.00
2062;DHT22;11070;51.336;12.340;2023-02-15T18:16:14;8.30;1.00
2062;DHT22;11070;51.336;12.340;2023-02-15T18:18:40;8.30;1.00
2062;DHT22;11070;51.336;12.340;2023-02-15T18:21:06;8.20;1.00
2062;DHT22;11070;51.336;12.340;2023-02-15T18:23:32;8.10;1.00
2062;DHT22;11070;51.336;12.340;2023-02-15T18:25:58;8.00;99.90
2062;DHT22;11070;51.336;12.340;2023-02-15T18:28:24;8.00;99.90
2062;DHT22;11070;51.336;12.340;2023-02-15T18:30:50;7.90;99.90
2062;DHT22;11070;51.336;12.340;2023-02-15T18:33:35;7.90;1.00
2062;DHT22;11070;51.336;12.340;2023-02-15T18:36:04;7.80;1.00
2062;DHT22;11070;51.336;12.340;2023-02-15T18:38:31;7.80;91.20
2062;DHT22;11070;51.336;12.340;2023-02-15T18:40:57;7.80;99.90
2062;DHT22;11070;51.336;12.340;2023-02-15T18:43:23;7.80;1.00
2062;DHT22;11070;51.336;12.340;2023-02-15T18:45:48;7.70;1.00
2062;DHT22;11070;51.336;12.340;2023-02-15T18:48:14;7.70;1.00
2062;DHT22;11070;51.336;12.340;2023-02-15T18:50:40;7.70;1.00
2062;DHT22;11070;51.336;12.340;2023-02-15T18:53:10;7.70;1.00
2062;DHT22;11070;51.336;12.340;2023-02-15T18:55:38;7.70;99.90
2062;DHT22;11070;51.336;12.340;2023-02-15T18:58:03;7.70;99.90
2062;DHT22;11070;51.336;12.340;2023-02-15T19:00:32;7.70;1.00
2062;DHT22;11070;51.336;12.340;2023-02-15T19:02:59;7.60;1.00
2062;DHT22;11070;51.336;12.340;2023-02-15T19:05:26;7.60;1.00
2062;DHT22;11070;51.336;12.340;2023-02-15T19:07:52;7.50;99.90
2062;DHT22;11070;51.336;12.340;2023-02-15T19:10:27;7.50;99.90
2062;DHT22;11070;51.336;12.340;2023-02-15T19:12:53;7.40;1.00
2062;DHT22;11070;51.336;12.340;2023-02-15T19:15:22;7.40;99.90
2062;DHT22;11070;51.336;12.340;2023-02-15T19:17:48;7.30;1.00
2062;DHT22;11070;51.336;12.340;2023-02-15T19:20:16;7.20;99.90
2062;DHT22;11070;51.336;12.340;2023-02-15T19:22:42;7.20;1.00
2062;DHT22;11070;51.336;12.340;2023-02-15T19:25:14;7.10;1.00
2062;DHT22;11070;51.336;12.340;2023-02-15T19:27:42;7.10;99.90
2062;DHT22;11070;51.336;12.340;2023-02-15T19:30:16;7.00;1.00